Time;durP1;ratioP1;P1;durP2;ratioP2;P2;SDS_P1;SDS_P2;PMS_P1;PMS_P2;Temp;Humidity;BMP_temperature;BMP_pressure;BME280_temperature;BME280_humidity;BME280_pressure;Samples;Min_cycle;Max_cycle;Signal;HPM_P1;HPM_P2
2022/01/23 00:01:47;;;;;;;23.97;17.90;;;4.00;99.90;;;2.21;98.60;99485.94;5077689;28;20462;-82
2022/01/23 00:04:16;;;;;;;23.63;17.33;;;3.90;99.90;;;2.46;98.16;99509.75;5077321;28;20904;-81
2022/01/23 00:06:45;;;;;;;26.90;18.90;;;3.90;99.90;;;2.35;98.24;99491.94;5059176;28;20921;-82
2022/01/23 00:09:14;;;;;;;26.70;18.80;;;3.90;99.90;;;2.38;98.09;99500.53;5077429;28;20437;-82
2022/01/23 00:11:47;;;;;;;28.20;19.50;;;3.90;99.90;;;2.42;97.65;99493.13;5076704;28;20433;-81
2022/01/23 00:19:45;;;;;;;24.50;17.90;;;4.00;99.90;;;2.40;97.14;99484.41;5076111;28;20920;-81
2022/01/23 00:22:13;;;;;;;21.63;16.70;;;4.00;99.90;;;2.38;97.11;99487.19;5078015;28;20475;-81
2022/01/23 00:30:27;;;;;;;20.90;16.43;;;4.10;99.90;;;2.49;96.41;99496.97;5080486;28;20512;-82
2022/01/23 00:32:57;;;;;;;27.70;16.87;;;4.00;99.90;;;2.76;95.29;99493.00;5076179;28;20860;-83
2022/01/23 00:35:26;;;;;;;23.97;18.10;;;4.10;99.90;;;2.58;96.26;99491.88;5057440;28;20860;-86
2022/01/23 00:37:54;;;;;;;26.60;18.23;;;4.00;99.90;;;2.57;96.77;99490.19;5077455;28;20441;-86
2022/01/23 00:40:23;;;;;;;22.60;16.60;;;4.00;99.90;;;2.52;97.01;99495.88;5078052;28;20923;-85
2022/01/23 00:42:53;;;;;;;24.10;17.37;;;4.00;99.90;;;2.53;96.85;99498.44;5076521;28;20795;-84
2022/01/23 00:48:06;;;;;;;23.17;18.23;;;4.00;99.90;;;2.62;96.61;99483.47;5074255;28;20456;-86
2022/01/23 00:50:41;;;;;;;24.40;18.43;;;4.00;99.90;;;2.51;96.79;99487.06;5081745;28;20441;-85
2022/01/23 00:53:10;;;;;;;29.20;19.23;;;4.00;99.90;;;2.68;96.27;99487.47;5078169;28;20532;-85
2022/01/23 00:55:38;;;;;;;25.07;18.47;;;4.10;99.90;;;2.65;95.92;99493.91;5058681;28;20578;-85
2022/01/23 00:58:05;;;;;;;26.40;19.17;;;4.10;99.90;;;2.41;97.11;99489.63;5064803;28;20442;-83
2022/01/23 01:00:32;;;;;;;25.93;18.77;;;4.00;99.90;;;2.51;96.39;99492.38;5073761;28;20437;-86
2022/01/23 01:03:00;;;;;;;26.57;18.43;;;4.00;99.90;;;2.55;96.83;99499.16;5076924;28;20520;-77
2022/01/23 01:05:27;;;;;;;27.83;18.90;;;4.00;99.90;;;2.40;96.59;99489.75;5057727;28;20443;-78
2022/01/23 01:07:57;;;;;;;25.00;17.83;;;4.00;99.90;;;2.53;97.06;99500.25;5062945;28;20437;-78
2022/01/23 01:10:31;;;;;;;26.80;18.87;;;4.00;99.90;;;2.48;96.85;99502.47;5098678;28;20451;-77
2022/01/23 01:13:01;;;;;;;24.70;18.50;;;4.00;99.90;;;2.47;96.99;99498.09;5098187;28;20430;-78
2022/01/23 01:15:36;;;;;;;24.37;18.13;;;4.00;99.90;;;2.46;96.51;99502.56;5087956;28;20469;-78
2022/01/23 01:31:54;;;;;;;30.07;21.57;;;3.90;99.90;;;2.29;97.63;99492.44;5075137;28;20442;-77
2022/01/23 01:34:29;;;;;;;27.17;19.70;;;3.90;99.90;;;2.52;97.35;99506.56;5074464;28;20466;-77
2022/01/23 01:36:56;;;;;;;24.80;17.60;;;3.90;99.90;;;2.35;97.45;99502.59;5057390;28;20476;-77
2022/01/23 01:39:28;;;;;;;24.67;18.67;;;3.90;99.90;;;2.42;96.73;99503.81;5074578;28;20438;-78
2022/01/23 01:41:56;;;;;;;32.60;22.50;;;3.90;99.90;;;2.38;97.07;99497.03;5056859;28;20441;-77
2022/01/23 01:44:23;;;;;;;29.43;20.10;;;3.90;99.90;;;2.35;97.46;99486.59;5074249;28;20495;-76
2022/01/23 01:46:51;;;;;;;24.07;19.57;;;3.90;99.90;;;2.37;97.43;99498.84;5056013;28;20513;-77
2022/01/23 01:49:26;;;;;;;29.67;21.53;;;3.90;99.90;;;2.30;97.48;99491.47;5072961;28;20437;-78
2022/01/23 01:51:54;;;;;;;27.87;20.93;;;3.80;99.90;;;2.30;97.53;99480.81;5074376;28;20467;-76
2022/01/23 01:54:23;;;;;;;27.03;19.80;;;3.80;99.90;;;2.32;97.52;99481.53;5072981;28;20443;-76
2022/01/23 01:57:03;;;;;;;29.97;21.70;;;3.80;99.90;;;2.29;97.75;99482.66;5072864;28;20526;-76
2022/01/23 02:00:11;;;;;;;26.53;19.00;;;3.80;99.90;;;1.70;98.42;99408.25;5074231;28;20448;-75
2022/01/23 02:02:48;;;;;;;28.00;19.70;;;3.70;99.90;;;2.27;98.13;99487.22;5055847;28;20441;-76
2022/01/23 02:10:48;;;;;;;30.00;20.43;;;3.70;99.90;;;2.19;98.35;99497.69;5073925;28;20533;-77
2022/01/23 02:13:20;;;;;;;34.23;24.03;;;3.70;99.90;;;1.49;98.25;99372.69;5057165;28;20434;-78
2022/01/23 02:16:19;;;;;;;30.47;20.90;;;3.80;99.90;;;2.43;98.23;99496.63;5055961;28;20992;-78
2022/01/23 02:24:59;;;;;;;27.20;20.77;;;3.90;99.90;;;2.25;98.07;99500.72;5072199;28;20437;-77
2022/01/23 02:52:43;;;;;;;30.00;21.00;;;3.70;99.90;;;2.38;98.76;99495.22;5077529;28;20459;-75
2022/01/23 02:55:14;;;;;;;29.30;20.20;;;3.80;99.90;;;2.14;99.25;99511.41;5077896;28;20505;-76
2022/01/23 02:57:52;;;;;;;30.70;20.33;;;3.70;99.90;;;2.12;99.29;99508.88;5077107;28;20439;-76
2022/01/23 03:00:23;;;;;;;37.83;21.27;;;3.70;99.90;;;2.14;99.24;99511.41;5077552;28;20452;-76
2022/01/23 03:02:53;;;;;;;30.20;20.10;;;3.70;99.90;;;2.28;98.90;99509.44;5077927;28;20434;-74
2022/01/23 03:05:34;;;;;;;29.57;21.40;;;3.70;99.90;;;2.34;99.21;99516.91;5059401;28;20447;-77
2022/01/23 03:08:18;;;;;;;32.47;21.87;;;3.70;99.90;;;2.17;99.05;99508.47;5077626;28;20433;-77
2022/01/23 03:11:00;;;;;;;30.50;20.13;;;3.70;99.90;;;2.06;100.00;99509.34;5078692;28;20455;-77
2022/01/23 03:16:27;;;;;;;30.77;20.33;;;3.60;99.90;;;2.08;100.00;99512.75;5067793;28;20461;-78
2022/01/23 03:24:38;;;;;;;31.70;21.50;;;3.50;99.90;;;2.07;100.00;99520.88;5076985;28;20444;-77
2022/01/23 03:27:27;;;;;;;31.53;20.97;;;3.60;99.90;;;2.03;100.00;99519.41;5063317;28;20440;-78
2022/01/23 03:29:58;;;;;;;32.00;21.40;;;3.50;99.90;;;2.01;100.00;99505.38;5084648;28;20438;-77
2022/01/23 03:32:33;;;;;;;31.23;20.83;;;3.50;99.90;;;2.08;100.00;99522.56;5066226;28;20445;-76
2022/01/23 03:35:01;;;;;;;34.23;22.23;;;3.50;99.90;;;2.00;100.00;99530.34;5084041;28;20429;-76
2022/01/23 03:37:28;;;;;;;28.53;19.60;;;3.50;99.90;;;2.05;100.00;99533.50;5084087;28;20469;-75
2022/01/23 03:39:55;;;;;;;32.87;21.63;;;3.50;99.90;;;2.08;100.00;99526.06;5078010;28;20554;-77
2022/01/23 03:42:24;;;;;;;28.67;20.27;;;3.60;99.90;;;2.06;100.00;99519.19;5077684;28;20441;-76
2022/01/23 03:45:08;;;;;;;32.57;19.83;;;3.60;99.90;;;2.09;100.00;99519.75;5078202;28;20855;-76
2022/01/23 03:47:38;;;;;;;30.53;19.57;;;3.60;99.90;;;2.04;99.97;99513.97;5076094;28;20549;-76
2022/01/23 03:50:09;;;;;;;27.70;19.93;;;3.50;99.90;;;2.03;99.99;99508.75;5058810;28;20443;-75
2022/01/23 03:52:36;;;;;;;29.40;19.30;;;3.50;99.90;;;2.15;100.00;99497.09;5061815;28;20443;-75
2022/01/23 03:55:06;;;;;;;30.70;20.00;;;3.60;99.90;;;2.05;99.63;99488.16;5076256;28;20932;-75
2022/01/23 03:57:35;;;;;;;29.00;19.30;;;3.60;99.90;;;2.00;99.74;99472.53;5058754;28;20457;-78
2022/01/23 04:00:02;;;;;;;27.20;19.37;;;3.60;99.90;;;2.28;99.45;99490.75;5076053;28;20473;-75
2022/01/23 04:02:29;;;;;;;28.47;19.43;;;3.70;99.90;;;2.34;99.13;99506.25;5076116;28;20445;-75
2022/01/23 04:04:56;;;;;;;29.87;19.50;;;3.70;99.90;;;2.23;99.14;99494.66;5057773;28;21031;-76
2022/01/23 04:07:27;;;;;;;31.30;19.57;;;3.70;99.90;;;2.28;99.13;99488.09;5058994;28;20434;-75
2022/01/23 04:09:54;;;;;;;28.57;18.13;;;3.70;99.90;;;2.31;98.02;99486.03;5058235;28;20449;-74
2022/01/23 04:12:35;;;;;;;28.03;19.83;;;3.70;99.90;;;2.30;98.32;99502.16;5058056;28;20516;-76
2022/01/23 04:15:12;;;;;;;26.60;19.00;;;3.70;99.90;;;2.14;98.95;99499.91;5075874;28;20438;-73
2022/01/23 04:31:47;;;;;;;29.50;18.57;;;3.60;99.90;;;1.97;99.76;99516.28;5075395;28;20438;-75
2022/01/23 04:34:20;;;;;;;29.70;19.00;;;3.50;99.90;;;1.92;99.86;99517.63;5075523;28;20448;-75
2022/01/23 04:45:20;;;;;;;27.27;18.50;;;3.40;99.90;;;1.97;100.00;99508.28;5074552;28;20492;-75
2022/01/23 05:01:47;;;;;;;30.97;19.13;;;3.40;99.90;;;1.89;100.00;99529.34;5098623;28;20476;-76
2022/01/23 05:04:16;;;;;;;31.00;19.20;;;3.40;99.90;;;1.91;99.94;99531.91;5093975;28;20448;-77
2022/01/23 05:06:46;;;;;;;31.43;20.60;;;3.40;99.90;;;1.97;100.00;99534.94;5082006;28;20449;-76
2022/01/23 05:09:15;;;;;;;30.67;20.50;;;3.50;99.90;;;1.89;100.00;99526.69;5075900;28;20508;-76
2022/01/23 05:11:49;;;;;;;34.03;21.67;;;3.50;99.90;;;1.92;99.66;99538.94;5074560;28;20440;-76
2022/01/23 05:14:18;;;;;;;28.80;18.93;;;3.40;99.90;;;2.01;99.16;99543.56;5073385;28;20449;-75
2022/01/23 05:16:45;;;;;;;33.30;20.80;;;3.50;99.90;;;2.03;99.48;99546.94;5056991;28;20467;-77
2022/01/23 05:19:12;;;;;;;37.10;20.00;;;3.50;99.90;;;1.91;99.76;99548.78;5056880;28;20468;-79
2022/01/23 05:24:32;;;;;;;31.07;19.73;;;3.40;99.90;;;1.82;99.56;99533.50;5070391;28;20449;-76
2022/01/23 05:27:00;;;;;;;32.53;20.87;;;3.40;99.90;;;1.88;100.00;99546.31;5056636;28;20516;-75
2022/01/23 05:29:27;;;;;;;27.70;19.87;;;3.40;99.90;;;1.97;99.62;99547.41;5074546;28;20443;-75
2022/01/23 05:31:54;;;;;;;32.00;20.27;;;3.40;99.90;;;1.57;99.28;99476.81;5074347;28;20465;-75
2022/01/23 05:34:23;;;;;;;31.80;20.50;;;3.50;99.90;;;1.77;99.11;99530.38;5075041;28;20531;-75
2022/01/23 05:36:52;;;;;;;28.93;19.30;;;3.50;99.90;;;1.99;99.51;99550.81;5085935;28;20480;-75
2022/01/23 05:39:21;;;;;;;31.03;21.00;;;3.40;99.90;;;1.91;99.71;99547.91;5082005;28;20433;-76
2022/01/23 05:41:54;;;;;;;33.30;20.70;;;3.40;99.90;;;2.01;99.49;99556.03;5074250;28;20440;-75
2022/01/23 05:44:21;;;;;;;33.73;20.67;;;3.50;99.90;;;2.02;99.36;99555.03;5074713;28;20521;-79
2022/01/23 05:46:48;;;;;;;29.57;19.20;;;3.50;99.90;;;1.90;99.79;99560.41;5073651;28;20464;-79
2022/01/23 05:49:15;;;;;;;40.67;20.70;;;3.40;99.90;;;1.87;99.82;99551.81;5074455;28;20845;-78
2022/01/23 05:51:42;;;;;;;28.83;19.87;;;3.40;99.90;;;1.87;99.91;99546.47;5074119;28;20583;-78
2022/01/23 05:54:10;;;;;;;33.93;20.77;;;3.40;99.90;;;1.92;99.77;99544.28;5074170;28;20436;-78
2022/01/23 05:56:37;;;;;;;28.00;19.80;;;3.40;99.90;;;1.90;99.60;99536.41;5071273;28;20552;-79
2022/01/23 05:59:04;;;;;;;35.00;21.73;;;3.40;99.90;;;1.92;100.00;99545.13;5074249;28;20552;-80
2022/01/23 06:01:31;;;;;;;32.17;20.00;;;3.40;99.90;;;1.86;100.00;99544.78;5056002;28;20614;-79
2022/01/23 06:03:58;;;;;;;31.63;20.87;;;3.30;99.90;;;1.83;100.00;99546.72;5072951;28;20528;-79
2022/01/23 06:06:25;;;;;;;35.73;21.03;;;3.30;99.90;;;1.76;100.00;99556.16;5054053;28;20532;-83
2022/01/23 06:08:52;;;;;;;34.33;20.97;;;3.30;99.90;;;1.82;100.00;99554.81;5055843;28;20903;-85
2022/01/23 06:11:20;;;;;;;34.47;22.10;;;3.30;99.90;;;1.93;100.00;99559.28;5075111;28;20518;-84
2022/01/23 06:13:47;;;;;;;31.23;20.33;;;3.40;99.90;;;1.94;98.76;99551.19;5075013;28;20440;-83
2022/01/23 06:16:14;;;;;;;28.00;19.00;;;3.40;99.90;;;2.22;98.32;99562.31;5055646;28;20533;-77
2022/01/23 06:18:43;;;;;;;31.00;19.70;;;3.60;99.90;;;2.01;98.34;99566.69;5056524;28;20789;-79
2022/01/23 06:21:12;;;;;;;27.87;17.53;;;3.50;99.90;;;2.02;98.79;99565.72;5057151;28;20943;-83
2022/01/23 06:23:39;;;;;;;33.10;20.43;;;3.50;99.90;;;2.01;97.92;99569.34;5062342;28;20933;-83
2022/01/23 06:26:06;;;;;;;26.00;18.40;;;3.50;99.90;;;1.91;98.71;99559.44;5057499;28;20780;-83
2022/01/23 06:28:44;;;;;;;29.73;19.90;;;3.50;99.90;;;1.97;99.06;99588.25;5075200;28;20520;-83
2022/01/23 06:31:11;;;;;;;28.60;17.90;;;3.50;99.90;;;1.96;99.34;99591.03;5075631;28;20429;-80
2022/01/23 06:33:38;;;;;;;32.70;19.50;;;3.50;99.90;;;2.16;98.62;99589.47;5075102;28;20425;-83
2022/01/23 06:36:06;;;;;;;29.97;19.30;;;3.50;99.90;;;1.80;98.58;99549.59;5076690;28;20933;-86
2022/01/23 06:38:33;;;;;;;29.00;18.40;;;3.50;99.90;;;2.08;97.78;99592.72;5057726;28;20521;-84
2022/01/23 06:41:00;;;;;;;26.87;18.23;;;3.50;99.90;;;2.04;98.59;99590.44;5075949;28;20434;-85
2022/01/23 06:43:28;;;;;;;31.20;20.17;;;3.50;99.90;;;2.02;99.11;99597.72;5075258;28;20437;-82
2022/01/23 06:45:57;;;;;;;27.77;18.70;;;3.50;99.90;;;2.22;97.81;99594.31;5076544;28;20500;-84
2022/01/23 06:48:24;;;;;;;30.03;18.53;;;3.60;99.90;;;2.30;96.92;99591.03;5076820;28;20434;-86
2022/01/23 06:50:53;;;;;;;31.00;20.07;;;3.70;99.90;;;2.18;96.95;99592.84;5058355;28;20518;-88
2022/01/23 06:53:20;;;;;;;31.73;20.43;;;3.70;99.90;;;2.34;97.29;99615.63;5073510;28;20445;-79
2022/01/23 06:55:47;;;;;;;35.87;20.50;;;3.70;99.90;;;2.36;96.97;99609.19;5073391;28;20862;-79
2022/01/23 06:58:14;;;;;;;30.97;20.30;;;3.80;99.90;;;2.41;96.23;99620.34;5074036;28;20464;-79
2022/01/23 07:00:40;;;;;;;26.33;18.63;;;3.80;99.90;;;2.22;96.51;99594.31;5055685;28;20992;-78
2022/01/23 07:03:10;;;;;;;25.90;17.20;;;3.80;99.90;;;2.48;96.74;99611.84;5073788;28;20516;-78
2022/01/23 07:05:37;;;;;;;30.33;17.83;;;3.80;99.90;;;2.42;96.11;99605.19;5073586;28;20547;-78
2022/01/23 07:08:05;;;;;;;30.10;18.70;;;3.90;99.90;;;2.35;96.71;99619.97;5073153;28;20988;-79
2022/01/23 07:10:33;;;;;;;26.70;17.43;;;3.80;99.90;;;2.41;96.02;99627.50;5070616;28;20473;-78
2022/01/23 07:13:00;;;;;;;29.30;19.97;;;3.80;99.90;;;2.50;96.09;99628.59;5056268;28;20526;-79
2022/01/23 07:15:27;;;;;;;27.13;17.40;;;3.90;99.90;;;2.47;95.60;99626.16;5072758;28;20487;-78
2022/01/23 07:17:54;;;;;;;29.70;18.47;;;3.90;99.90;;;2.31;96.34;99626.53;5073521;28;20502;-77
2022/01/23 07:20:22;;;;;;;28.77;18.17;;;3.80;99.90;;;2.41;96.79;99631.00;5056126;28;20514;-78
2022/01/23 07:22:49;;;;;;;26.87;17.10;;;3.80;99.90;;;2.39;96.06;99632.13;5073697;28;20474;-78
2022/01/23 07:25:16;;;;;;;27.87;19.40;;;3.80;99.90;;;2.42;95.76;99631.88;5077189;28;20469;-78
2022/01/23 07:27:48;;;;;;;28.33;18.50;;;3.80;99.90;;;2.43;96.69;99638.91;5077112;28;20520;-77
2022/01/23 07:30:27;;;;;;;29.13;19.63;;;3.80;99.90;;;2.54;94.90;99638.91;5077215;28;20528;-76
2022/01/23 07:32:55;;;;;;;26.47;17.97;;;3.90;99.90;;;2.49;95.32;99643.72;5059687;28;20417;-78
2022/01/23 07:35:23;;;;;;;31.20;18.90;;;3.90;99.70;;;2.40;95.70;99648.00;5074399;28;20532;-79
2022/01/23 07:37:50;;;;;;;29.13;19.90;;;3.80;99.90;;;2.42;96.42;99653.22;5076824;28;20461;-80
2022/01/23 07:40:19;;;;;;;30.27;17.90;;;3.80;99.90;;;2.37;95.50;99656.25;5058728;28;20437;-80
2022/01/23 07:42:46;;;;;;;30.10;18.20;;;3.90;99.90;;;2.42;95.73;99655.88;5076285;28;20430;-80
2022/01/23 07:45:13;;;;;;;30.10;18.27;;;3.90;99.90;;;2.44;95.78;99651.28;5074051;28;20456;-83
2022/01/23 07:47:40;;;;;;;31.97;19.20;;;3.90;99.90;;;2.57;95.45;99655.63;5073381;28;20967;-77
2022/01/23 07:50:09;;;;;;;26.53;18.50;;;3.90;99.90;;;2.56;95.72;99668.09;5076769;28;20572;-78
2022/01/23 07:52:38;;;;;;;26.83;18.33;;;4.00;99.90;;;2.55;94.30;99669.09;5077719;28;20477;-79
2022/01/23 07:55:08;;;;;;;29.60;18.60;;;4.00;98.70;;;2.57;95.13;99672.47;5076502;28;20537;-79
2022/01/23 07:57:36;;;;;;;27.10;17.97;;;4.00;99.90;;;2.61;95.31;99673.09;5076032;28;20560;-78
2022/01/23 08:00:05;;;;;;;27.33;18.47;;;4.00;99.90;;;2.66;94.65;99674.41;5074955;28;20476;-80
2022/01/23 08:02:32;;;;;;;28.93;18.73;;;4.10;97.90;;;2.78;94.18;99669.88;5058009;28;21003;-79
2022/01/23 08:04:59;;;;;;;25.97;18.10;;;4.10;98.00;;;2.83;93.47;99675.72;5058480;28;20483;-79
2022/01/23 08:07:31;;;;;;;26.33;19.37;;;4.20;96.60;;;2.92;93.47;99675.94;5057967;28;21007;-79
2022/01/23 08:10:02;;;;;;;29.40;18.83;;;4.30;96.50;;;2.85;92.54;99662.22;5076644;28;20429;-82
2022/01/23 08:12:31;;;;;;;30.10;18.73;;;4.30;95.50;;;3.02;92.80;99670.69;5060332;28;20454;-82
2022/01/23 08:15:00;;;;;;;27.27;17.30;;;4.40;95.60;;;3.07;92.96;99669.31;5077201;28;20524;-84
2022/01/23 08:17:27;;;;;;;27.40;17.63;;;4.50;97.00;;;3.07;92.16;99665.81;5079642;28;20947;-83
2022/01/23 08:19:57;;;;;;;28.87;17.97;;;4.50;95.40;;;3.31;91.21;99675.44;5060057;28;20769;-78
2022/01/23 08:22:27;;;;;;;26.30;18.00;;;4.60;93.80;;;3.24;90.67;99685.78;5076147;28;20512;-83
2022/01/23 08:24:55;;;;;;;27.10;18.90;;;4.60;93.10;;;3.16;90.98;99683.75;5076450;28;20433;-82
2022/01/23 08:27:25;;;;;;;24.65;18.75;;;4.70;92.70;;;3.19;91.04;99682.66;5076406;28;20473;-82
2022/01/23 08:29:53;;;;;;;27.33;17.53;;;4.60;92.60;;;3.36;91.18;99687.44;5077630;28;20210;-83
2022/01/23 08:32:20;;;;;;;28.07;17.50;;;4.70;93.80;;;3.29;90.45;99696.09;5079505;28;20429;-72
2022/01/23 08:34:47;;;;;;;25.57;16.33;;;4.70;93.40;;;3.20;90.96;99681.69;5098644;28;20447;-82
2022/01/23 08:37:15;;;;;;;23.67;16.70;;;4.60;92.70;;;3.28;90.72;99694.41;5092210;28;20497;-71
2022/01/23 08:39:43;;;;;;;23.27;16.77;;;4.70;92.90;;;3.31;89.75;99692.31;5074874;28;20924;-71
2022/01/23 08:42:12;;;;;;;21.40;16.50;;;4.80;91.90;;;3.30;90.18;99695.97;5075134;28;20430;-70
2022/01/23 08:44:41;;;;;;;23.40;16.30;;;4.70;92.60;;;3.21;91.71;99686.03;5075640;28;20477;-72
2022/01/23 08:47:08;;;;;;;21.67;15.23;;;4.70;93.40;;;3.29;91.31;99696.97;5074025;28;20923;-72
2022/01/23 08:49:44;;;;;;;22.80;15.77;;;4.70;94.00;;;3.09;90.07;99669.22;5075291;28;20835;-71
2022/01/23 08:52:11;;;;;;;22.40;15.20;;;4.70;92.20;;;3.42;89.77;99678.06;5078679;28;20524;-72
2022/01/23 08:54:38;;;;;;;22.47;15.67;;;4.80;92.20;;;3.40;89.14;99696.88;5074787;28;20467;-72
2022/01/23 08:57:07;;;;;;;22.30;15.00;;;4.80;91.50;;;3.38;89.41;99696.16;5086566;28;20512;-72
2022/01/23 08:59:34;;;;;;;21.57;15.23;;;4.80;91.40;;;3.28;88.87;99691.72;5079460;28;20524;-71
2022/01/23 09:02:02;;;;;;;19.37;14.10;;;4.70;91.20;;;3.24;89.07;99685.78;5075839;28;20923;-72
2022/01/23 09:04:29;;;;;;;22.43;14.73;;;4.70;91.60;;;3.33;88.66;99692.19;5075978;28;20469;-71
2022/01/23 09:06:56;;;;;;;23.47;15.27;;;4.70;91.20;;;3.34;88.76;99692.06;5075973;28;20972;-71
2022/01/23 09:09:24;;;;;;;22.53;15.73;;;4.70;91.50;;;3.39;89.48;99689.84;5058233;28;20425;-70
2022/01/23 09:11:59;;;;;;;24.97;15.50;;;4.80;91.50;;;3.55;88.33;99688.56;5075256;28;20449;-71
2022/01/23 09:14:26;;;;;;;21.73;14.77;;;4.90;90.90;;;3.66;87.73;99680.50;5074246;28;20916;-72
2022/01/23 09:16:55;;;;;;;24.17;14.73;;;5.10;90.50;;;3.73;87.20;99685.34;5074494;28;20907;-71
2022/01/23 09:19:26;;;;;;;21.63;14.20;;;5.10;90.10;;;3.55;88.22;99693.91;5071057;28;20450;-72
2022/01/23 09:21:54;;;;;;;21.80;14.53;;;5.10;90.10;;;3.85;87.67;99686.09;5070513;28;20480;-72
2022/01/23 09:24:23;;;;;;;20.90;14.93;;;5.20;90.50;;;4.00;86.33;99684.78;5073836;28;21012;-73
2022/01/23 09:26:54;;;;;;;20.47;13.90;;;5.40;89.40;;;4.03;86.67;99686.38;5056072;28;20567;-73
2022/01/23 09:29:30;;;;;;;19.87;13.73;;;5.40;89.10;;;3.98;85.78;99684.09;5056150;28;20989;-72
2022/01/23 09:31:58;;;;;;;20.50;15.80;;;5.40;88.60;;;4.04;86.06;99693.41;5056847;28;20437;-74
2022/01/23 09:34:31;;;;;;;19.33;13.77;;;5.40;88.80;;;4.02;84.99;99693.53;5077084;28;20987;-78
2022/01/23 09:37:01;;;;;;;21.37;14.10;;;5.40;87.80;;;4.08;85.35;99686.81;5075072;28;20433;-75
2022/01/23 09:39:29;;;;;;;24.17;14.83;;;5.40;87.00;;;3.91;85.38;99691.78;5057896;28;20440;-73
2022/01/23 09:42:02;;;;;;;28.40;16.30;;;5.40;86.40;;;3.95;84.56;99692.38;5056125;28;20568;-73
2022/01/23 09:44:38;;;;;;;24.10;15.10;;;5.40;86.60;;;3.91;84.77;99697.13;5076397;28;20455;-74
2022/01/23 09:47:06;;;;;;;20.03;12.60;;;5.30;86.20;;;3.84;85.43;99687.91;5056067;28;20488;-72
2022/01/23 09:49:34;;;;;;;18.80;12.70;;;5.30;87.00;;;3.86;85.67;99685.13;5066394;28;20537;-73
2022/01/23 09:52:05;;;;;;;17.40;12.03;;;5.30;87.20;;;4.02;84.99;99690.00;5055948;28;20913;-73
2022/01/23 09:54:33;;;;;;;14.63;11.17;;;5.40;86.50;;;3.99;84.17;99692.94;5038210;28;20517;-73
2022/01/23 09:57:04;;;;;;;15.23;12.20;;;5.40;85.90;;;4.02;83.59;99701.56;5055511;28;20875;-74
2022/01/23 09:59:31;;;;;;;12.40;9.60;;;5.40;85.10;;;4.03;84.09;99697.06;5072111;28;21012;-73
2022/01/23 10:01:59;;;;;;;17.07;11.23;;;5.50;85.10;;;4.15;83.60;99701.34;5040546;28;20442;-73
2022/01/23 10:04:27;;;;;;;18.43;11.23;;;5.50;85.10;;;4.07;83.25;99698.50;5056500;28;20439;-72
2022/01/23 10:06:55;;;;;;;13.33;10.90;;;5.50;84.60;;;4.33;85.61;99708.78;5055184;28;20435;-73
2022/01/23 10:09:24;;;;;;;12.93;9.80;;;5.60;90.00;;;4.12;82.47;99706.94;5072580;28;20446;-77
2022/01/23 10:11:51;;;;;;;13.63;10.10;;;5.60;83.50;;;4.11;83.71;99692.75;5065969;28;20434;-82
2022/01/23 10:14:20;;;;;;;13.23;9.40;;;5.50;84.80;;;4.29;81.47;99699.28;5048937;28;20477;-81
2022/01/23 10:16:48;;;;;;;14.80;10.40;;;5.60;83.60;;;4.33;83.42;99692.72;5047804;28;20439;-80
2022/01/23 10:19:16;;;;;;;17.27;11.13;;;5.60;86.00;;;4.13;80.93;99647.13;5058135;28;21049;-82
2022/01/23 10:21:45;;;;;;;13.53;9.70;;;5.80;83.00;;;4.29;81.43;99689.44;5056354;28;20442;-82
2022/01/23 10:24:15;;;;;;;12.10;8.90;;;5.70;82.60;;;4.15;81.85;99687.97;5058907;28;20911;-86
2022/01/23 10:26:47;;;;;;;12.50;8.90;;;5.60;82.30;;;3.91;81.33;99667.72;5057539;28;20448;-86
2022/01/23 10:29:19;;;;;;;10.87;8.37;;;5.50;82.40;;;3.89;82.86;99683.03;5056749;28;20441;-88
2022/01/23 10:32:06;;;;;;;10.77;8.40;;;5.30;83.90;;;3.72;83.59;99683.66;5054497;28;20480;-83
2022/01/23 10:34:49;;;;;;;14.03;7.70;;;5.20;84.10;;;3.67;82.67;99641.25;5057633;28;20438;-84
2022/01/23 10:37:34;;;;;;;11.13;7.90;;;5.20;83.20;;;3.73;82.56;99677.31;5056991;28;20422;-84
2022/01/23 10:40:10;;;;;;;9.93;7.37;;;5.20;83.10;;;3.76;82.17;99671.69;5056765;28;20460;-84
2022/01/23 10:42:55;;;;;;;10.70;8.17;;;5.30;83.20;;;4.11;80.85;99674.03;5038222;28;20479;-87
2022/01/23 10:48:39;;;;;;;12.20;9.40;;;5.60;82.30;;;4.14;82.03;99688.94;5059441;28;20931;-83
2022/01/23 10:51:23;;;;;;;14.00;9.77;;;5.60;82.80;;;4.23;81.94;99661.41;5072610;28;20871;-83
2022/01/23 10:54:07;;;;;;;16.07;8.30;;;5.70;83.20;;;4.70;79.50;99681.41;5073618;28;20796;-81
2022/01/23 10:56:40;;;;;;;12.80;9.17;;;6.00;82.60;;;4.53;79.99;99662.34;5058201;28;20482;-84
2022/01/23 10:59:09;;;;;;;12.53;8.80;;;6.00;81.60;;;4.66;79.79;99663.94;5062820;28;20521;-86
2022/01/23 11:01:38;;;;;;;10.00;7.90;;;6.00;81.80;;;4.40;80.01;99669.75;5045363;28;20453;-86
2022/01/23 11:04:15;;;;;;;9.97;7.17;;;5.90;81.20;;;4.59;78.74;99668.13;5077833;28;20974;-84
2022/01/23 11:06:54;;;;;;;10.43;7.50;;;6.00;80.60;;;4.60;79.43;99661.78;5062327;28;20796;-87
2022/01/23 11:09:31;;;;;;;12.10;8.03;;;5.90;81.00;;;4.46;79.82;99663.84;5063992;28;20816;-89
2022/01/23 11:12:05;;;;;;;8.03;6.50;;;5.90;81.10;;;4.41;80.72;99670.63;5063861;28;21050;-89
2022/01/23 11:17:25;;;;;;;10.30;7.27;;;6.00;80.80;;;4.73;78.59;99667.75;5062834;28;20449;-81
2022/01/23 11:19:56;;;;;;;9.57;6.77;;;6.10;80.60;;;4.87;78.75;99663.00;5063459;28;20547;-81
2022/01/23 11:22:26;;;;;;;7.30;5.97;;;6.30;80.40;;;5.13;77.17;99676.69;5046145;28;20446;-84
2022/01/23 11:25:00;;;;;;;7.13;5.83;;;6.40;79.90;;;4.91;77.49;99680.47;5046367;28;20430;-83
2022/01/23 11:27:36;;;;;;;8.80;5.37;;;6.30;79.10;;;4.65;77.89;99657.72;5066178;28;20500;-80
2022/01/23 11:30:09;;;;;;;8.40;6.47;;;6.10;79.20;;;4.93;76.53;99662.47;5066454;28;20461;-80
2022/01/23 11:32:39;;;;;;;6.50;5.50;;;6.30;79.00;;;4.75;76.42;99676.50;5082505;28;20858;-80
2022/01/23 11:35:11;;;;;;;7.47;6.17;;;6.20;78.80;;;4.70;76.30;99673.38;5059993;28;20523;-77
2022/01/23 11:37:46;;;;;;;8.20;5.23;;;6.10;78.60;;;4.78;77.38;99670.03;5057324;28;20475;-78
2022/01/23 11:40:31;;;;;;;7.00;5.87;;;6.10;78.80;;;4.61;78.44;99668.84;5038322;28;20444;-78
2022/01/23 11:53:44;;;;;;;7.37;5.37;;;6.30;78.40;;;4.95;77.31;99680.06;5055658;28;20534;-78
2022/01/23 11:54:13;;;;;;;6.07;5.00;;;6.30;78.90;;;4.94;77.02;99674.88;5071899;28;20441;-78
2022/01/23 11:56:47;;;;;;;7.40;5.30;;;6.40;78.80;;;5.02;75.94;99672.31;5056712;28;20510;-79
2022/01/23 11:59:36;;;;;;;7.93;6.50;;;6.40;78.40;;;5.09;77.05;99665.44;5074245;28;21054;-79
2022/01/23 12:02:30;;;;;;;7.07;5.33;;;6.40;79.20;;;5.54;74.47;99676.59;5062494;28;20453;-78
2022/01/23 12:05:26;;;;;;;5.10;4.43;;;6.70;77.80;;;5.31;73.77;99670.66;5076352;28;20486;-78
2022/01/23 12:08:33;;;;;;;5.23;4.20;;;6.70;76.80;;;5.25;73.55;99669.41;5057940;28;20432;-78
2022/01/23 12:17:21;;;;;;;5.33;4.83;;;6.50;76.30;;;4.88;75.60;99656.66;5076743;28;20440;-84
2022/01/23 12:19:57;;;;;;;5.40;4.67;;;6.30;76.70;;;4.27;75.90;99565.66;5077918;28;20464;-86
2022/01/23 12:22:35;;;;;;;6.47;5.10;;;6.30;77.30;;;4.97;74.78;99626.38;5077841;28;20471;-88
2022/01/23 12:25:22;;;;;;;5.97;5.00;;;6.40;77.20;;;4.93;75.06;99651.75;5077230;28;20442;-85
2022/01/23 12:28:10;;;;;;;5.83;5.20;;;6.40;77.10;;;5.18;75.32;99654.84;5077860;28;20499;-85
2022/01/23 12:30:41;;;;;;;5.60;5.00;;;6.40;77.40;;;5.11;74.49;99641.16;5077038;28;20437;-72
2022/01/23 12:33:28;;;;;;;4.93;4.33;;;6.50;76.80;;;5.07;74.70;99639.75;5057377;28;20446;-77
2022/01/23 12:36:37;;;;;;;6.27;4.77;;;6.40;76.60;;;4.87;74.54;99642.44;5076490;28;20482;-76
2022/01/23 12:39:18;;;;;;;5.80;4.63;;;6.30;76.50;;;5.01;74.06;99638.47;5060389;28;20464;-78
2022/01/23 12:41:56;;;;;;;4.73;4.30;;;6.30;76.80;;;5.00;74.34;99633.25;5084481;28;20473;-76
2022/01/23 12:44:44;;;;;;;5.73;4.70;;;6.30;76.60;;;5.09;74.20;99635.09;5057696;28;20436;-78
2022/01/23 12:47:21;;;;;;;5.53;4.57;;;6.40;76.80;;;4.96;74.25;99640.75;5070498;28;20461;-77
2022/01/23 12:49:51;;;;;;;5.60;4.90;;;6.40;76.20;;;4.80;75.46;99636.78;5057068;28;20535;-78
2022/01/23 12:52:20;;;;;;;4.73;4.23;;;6.30;76.70;;;4.86;76.46;99632.69;5075086;28;20783;-78